Time;durP1;ratioP1;P1;durP2;ratioP2;P2;SDS_P1;SDS_P2;PMS_P1;PMS_P2;Temp;Humidity;BMP_temperature;BMP_pressure;BME280_temperature;BME280_humidity;BME280_pressure;Samples;Min_cycle;Max_cycle;Signal;HPM_P1;HPM_P2
2023/06/08 00:02:03;;;;;;;17.60;14.55;;;486.50;2380.80;;;;;;5033580;28;20440;-83
2023/06/08 00:04:33;;;;;;;14.98;13.30;;;486.50;2380.80;;;;;;5039786;28;20031;-83
2023/06/08 00:07:08;;;;;;;17.92;13.25;;;486.50;2380.80;;;;;;5051040;28;20094;-80
2023/06/08 00:09:36;;;;;;;15.25;13.55;;;486.60;2380.80;;;;;;5053184;28;20036;-81
2023/06/08 00:12:03;;;;;;;18.30;12.77;;;486.70;2380.80;;;;;;5052826;28;20033;-81
2023/06/08 00:14:28;;;;;;;24.83;15.38;;;486.70;2380.80;;;;;;5051974;28;20086;-80
2023/06/08 00:16:54;;;;;;;16.35;13.20;;;486.70;2380.80;;;;;;5052249;28;20032;-81
2023/06/08 00:19:20;;;;;;;14.68;13.10;;;486.70;2380.80;;;;;;5052893;28;20033;-82
2023/06/08 00:21:48;;;;;;;14.73;13.15;;;486.60;2380.80;;;;;;5051832;28;20036;-81
2023/06/08 00:24:19;;;;;;;17.75;13.52;;;486.70;2380.80;;;;;;5052703;28;20536;-81
2023/06/08 00:26:45;;;;;;;13.75;12.25;;;486.70;2380.80;;;;;;5052737;28;20036;-81
2023/06/08 00:29:10;;;;;;;15.05;12.85;;;486.70;2380.80;;;;;;5052391;28;20415;-81
2023/06/08 00:31:37;;;;;;;20.45;14.75;;;486.70;2380.80;;;;;;5052602;28;20025;-80
2023/06/08 00:34:04;;;;;;;17.85;14.35;;;486.60;2380.80;;;;;;5052468;28;20381;-81
2023/06/08 00:36:29;;;;;;;20.17;15.20;;;486.50;2380.80;;;;;;5052211;28;20036;-81
2023/06/08 00:38:55;;;;;;;19.20;15.10;;;486.50;2380.80;;;;;;5053718;28;20037;-80
2023/06/08 00:41:22;;;;;;;18.17;14.23;;;486.60;2380.80;;;;;;5052966;28;20523;-82
2023/06/08 00:43:47;;;;;;;19.65;15.43;;;486.60;2380.80;;;;;;5051792;28;20457;-80
2023/06/08 00:46:17;;;;;;;18.85;16.13;;;486.60;2380.80;;;;;;5049519;28;20029;-83
2023/06/08 00:48:43;;;;;;;19.15;15.20;;;486.60;2380.80;;;;;;5032175;28;20112;-83
2023/06/08 00:51:11;;;;;;;18.67;14.98;;;486.60;2380.80;;;;;;5032222;28;20134;-83
2023/06/08 00:53:37;;;;;;;18.33;14.90;;;486.50;2380.80;;;;;;5032515;28;20022;-83
2023/06/08 00:56:05;;;;;;;18.30;14.38;;;486.70;2380.80;;;;;;5032375;28;20033;-83
2023/06/08 00:58:33;;;;;;;16.38;14.40;;;486.70;2380.80;;;;;;5036385;28;20017;-83
2023/06/08 01:01:01;;;;;;;18.33;14.43;;;486.70;2380.80;;;;;;5058236;28;20026;-82
2023/06/08 01:03:35;;;;;;;15.18;13.57;;;486.80;2380.80;;;;;;5042504;28;20030;-82
2023/06/08 01:06:08;;;;;;;17.27;13.95;;;486.80;2380.80;;;;;;5033928;28;20064;-83
2023/06/08 01:08:57;;;;;;;;;;;486.80;2380.80;;;;;;5032473;28;20087;-82
2023/06/08 01:11:56;;;;;;;20.02;13.77;;;486.80;2380.80;;;;;;5032206;28;19905;-82
2023/06/08 01:15:05;;;;;;;18.02;14.52;;;486.70;2380.80;;;;;;5028872;28;20095;-82
2023/06/08 01:17:40;;;;;;;18.17;13.85;;;486.60;2380.80;;;;;;5014264;28;20048;-83
2023/06/08 01:20:20;;;;;;;20.88;14.77;;;486.70;2380.80;;;;;;5031064;28;20038;-83
2023/06/08 01:22:46;;;;;;;14.82;13.27;;;486.70;2380.80;;;;;;5030217;28;20465;-82
2023/06/08 01:25:14;;;;;;;17.60;15.55;;;486.70;2380.80;;;;;;5000965;28;20115;-83
2023/06/08 01:27:40;;;;;;;17.00;13.98;;;486.70;2380.80;;;;;;4998849;28;20038;-82
2023/06/08 01:30:07;;;;;;;19.92;15.30;;;486.80;2380.80;;;;;;4999478;28;20030;-83
2023/06/08 01:32:33;;;;;;;18.05;13.98;;;486.90;2380.80;;;;;;4998666;28;20028;-83
2023/06/08 01:35:00;;;;;;;23.88;14.18;;;486.80;2380.80;;;;;;5015620;28;20044;-83
2023/06/08 01:37:43;;;;;;;17.08;13.30;;;486.80;2380.80;;;;;;4999136;28;20033;-84
2023/06/08 01:40:23;;;;;;;16.27;12.90;;;486.80;2380.80;;;;;;4998775;28;20046;-83
2023/06/08 01:42:51;;;;;;;19.85;14.07;;;486.80;2380.80;;;;;;4998983;28;20026;-83
2023/06/08 01:45:21;;;;;;;20.77;13.85;;;486.80;2380.80;;;;;;4998588;28;20109;-84
2023/06/08 01:47:51;;;;;;;14.90;13.40;;;486.80;2380.80;;;;;;5015710;28;20041;-83
2023/06/08 01:50:18;;;;;;;17.58;12.95;;;486.60;2380.80;;;;;;5015390;28;20030;-83
2023/06/08 01:52:44;;;;;;;14.98;12.85;;;486.70;2380.80;;;;;;5012932;28;20036;-83
2023/06/08 01:55:15;;;;;;;15.05;13.43;;;486.60;2380.80;;;;;;5036078;28;20029;-84
2023/06/08 01:57:41;;;;;;;16.50;14.27;;;486.70;2380.80;;;;;;5036097;28;20539;-84
2023/06/08 02:00:08;;;;;;;16.73;13.93;;;486.70;2380.80;;;;;;5035940;28;20109;-83
2023/06/08 02:02:35;;;;;;;24.48;13.43;;;486.60;2380.80;;;;;;5035853;28;20025;-84
2023/06/08 02:05:01;;;;;;;15.82;13.27;;;486.70;2380.80;;;;;;5037030;28;20037;-83
2023/06/08 02:07:27;;;;;;;16.15;14.15;;;486.70;2380.80;;;;;;5035559;28;20120;-83
2023/06/08 02:09:53;;;;;;;19.52;15.07;;;486.70;2380.80;;;;;;5036022;28;20056;-84
2023/06/08 02:12:19;;;;;;;15.40;12.25;;;486.60;2380.80;;;;;;5035766;28;20026;-83
2023/06/08 02:14:46;;;;;;;15.68;13.93;;;486.60;2380.80;;;;;;5035544;28;20095;-83
2023/06/08 02:17:13;;;;;;;16.17;13.30;;;486.50;2380.80;;;;;;5035555;28;20481;-83
2023/06/08 02:19:39;;;;;;;18.65;13.98;;;486.60;2380.80;;;;;;5035552;28;20029;-84
2023/06/08 02:22:05;;;;;;;16.65;14.95;;;486.60;2380.80;;;;;;5036602;28;20053;-84
2023/06/08 02:24:31;;;;;;;20.65;13.93;;;486.50;2380.80;;;;;;5035402;28;20025;-83
2023/06/08 02:26:57;;;;;;;16.48;13.35;;;486.40;2380.80;;;;;;5035120;28;20030;-83
2023/06/08 02:29:23;;;;;;;19.35;12.45;;;486.40;2380.80;;;;;;5035343;28;20025;-83
2023/06/08 02:31:49;;;;;;;18.17;12.20;;;486.40;2380.80;;;;;;5035417;28;20029;-84
2023/06/08 02:34:15;;;;;;;14.55;12.88;;;486.40;2380.80;;;;;;5036309;28;20022;-83
2023/06/08 02:36:42;;;;;;;13.07;11.48;;;486.40;2380.80;;;;;;5034324;28;20033;-83
2023/06/08 02:39:08;;;;;;;15.57;12.55;;;486.40;2380.80;;;;;;5045146;28;20192;-83
2023/06/08 02:41:34;;;;;;;15.60;12.13;;;461.70;2380.80;;;;;;5056348;28;20061;-83
2023/06/08 02:43:59;;;;;;;16.60;12.32;;;486.40;2380.80;;;;;;5054984;28;20389;-84
2023/06/08 02:46:25;;;;;;;16.17;12.77;;;486.40;2380.80;;;;;;5048797;28;20033;-84
2023/06/08 02:48:51;;;;;;;14.95;12.35;;;486.40;2380.80;;;;;;5053972;28;20070;-85
2023/06/08 02:51:19;;;;;;;19.52;12.20;;;461.70;2380.80;;;;;;5056537;28;20457;-86
2023/06/08 02:53:45;;;;;;;14.48;12.50;;;461.60;2380.80;;;;;;5055526;28;20488;-86
2023/06/08 02:56:11;;;;;;;16.73;12.48;;;461.60;2380.80;;;;;;5056158;28;20032;-86
2023/06/08 02:58:41;;;;;;;14.30;12.27;;;461.70;2380.80;;;;;;5055585;28;20032;-86
2023/06/08 03:01:14;;;;;;;14.27;12.65;;;461.70;2380.80;;;;;;5055528;28;20028;-86
2023/06/08 03:03:42;;;;;;;19.75;13.48;;;486.40;2380.80;;;;;;5055259;28;20025;-86
2023/06/08 03:06:09;;;;;;;15.80;12.73;;;461.70;2380.80;;;;;;5055003;28;20060;-86
2023/06/08 03:08:38;;;;;;;18.45;11.98;;;486.40;2380.80;;;;;;5055361;28;20526;-86
2023/06/08 03:11:04;;;;;;;23.52;13.93;;;486.40;2380.80;;;;;;5055282;28;20504;-87
2023/06/08 03:13:30;;;;;;;18.48;14.65;;;486.40;2380.80;;;;;;5055316;28;20075;-86
2023/06/08 03:15:56;;;;;;;17.92;13.63;;;486.40;2380.80;;;;;;5054642;28;20059;-85
2023/06/08 03:18:22;;;;;;;17.10;13.70;;;486.40;2380.80;;;;;;5055417;28;20060;-87
2023/06/08 03:20:51;;;;;;;19.30;15.25;;;486.50;2380.80;;;;;;5054789;28;20021;-84
2023/06/08 03:23:19;;;;;;;22.27;17.38;;;486.50;2380.80;;;;;;5054181;28;20384;-84
2023/06/08 03:25:50;;;;;;;22.63;17.83;;;486.50;2380.80;;;;;;5055634;28;20029;-83
2023/06/08 03:28:19;;;;;;;24.45;17.60;;;486.40;2380.80;;;;;;5054532;28;20078;-84
2023/06/08 03:30:45;;;;;;;26.80;17.80;;;486.40;2380.80;;;;;;5053972;28;20051;-83
2023/06/08 03:33:11;;;;;;;26.77;15.95;;;486.40;2380.80;;;;;;5053968;28;20130;-82
2023/06/08 03:35:38;;;;;;;22.13;16.25;;;461.70;2380.80;;;;;;5054045;28;20033;-83
2023/06/08 03:38:04;;;;;;;21.67;16.25;;;486.40;2380.80;;;;;;5052324;28;20579;-83
2023/06/08 03:40:29;;;;;;;22.42;17.13;;;486.50;2380.80;;;;;;5053011;28;20048;-83
2023/06/08 03:42:55;;;;;;;24.25;15.98;;;486.50;2380.80;;;;;;5055217;28;20021;-83
2023/06/08 03:45:21;;;;;;;24.55;16.73;;;486.60;2380.80;;;;;;5053852;28;20036;-83
2023/06/08 03:47:47;;;;;;;21.08;15.43;;;486.60;2380.80;;;;;;5052701;28;20033;-84
2023/06/08 03:50:13;;;;;;;18.48;13.93;;;486.60;2380.80;;;;;;5053691;28;20027;-83
2023/06/08 03:52:39;;;;;;;17.27;15.05;;;486.60;2380.80;;;;;;5054984;28;20029;-83
2023/06/08 03:55:08;;;;;;;20.73;15.32;;;486.50;2380.80;;;;;;5055033;28;20379;-83
2023/06/08 03:57:35;;;;;;;16.85;13.05;;;486.50;2380.80;;;;;;5053616;28;20036;-83
2023/06/08 04:00:01;;;;;;;14.38;11.57;;;486.60;2380.80;;;;;;5053539;28;20140;-83
2023/06/08 04:02:26;;;;;;;13.98;11.90;;;486.60;2380.80;;;;;;5053410;28;20465;-83
2023/06/08 04:04:53;;;;;;;15.95;13.23;;;486.60;2380.80;;;;;;5053015;28;20049;-84
2023/06/08 04:07:22;;;;;;;15.68;12.30;;;486.60;2380.80;;;;;;5053606;28;20040;-83
2023/06/08 04:09:47;;;;;;;21.65;13.02;;;486.40;2380.80;;;;;;5053459;28;20099;-83
2023/06/08 04:12:13;;;;;;;20.80;14.10;;;486.40;2380.80;;;;;;5053180;28;20033;-83
2023/06/08 04:14:39;;;;;;;15.82;14.05;;;486.40;2380.80;;;;;;5053493;28;20025;-83
2023/06/08 04:17:05;;;;;;;23.17;14.48;;;486.50;2380.80;;;;;;5054521;28;20028;-84
2023/06/08 04:19:31;;;;;;;17.65;13.63;;;486.50;2380.80;;;;;;5052779;28;20025;-84
2023/06/08 04:21:56;;;;;;;21.00;14.60;;;486.40;2380.80;;;;;;5054198;28;20036;-83
2023/06/08 04:24:23;;;;;;;20.00;14.70;;;486.50;2380.80;;;;;;5053279;28;20078;-83
2023/06/08 04:26:50;;;;;;;19.90;14.43;;;486.40;2380.80;;;;;;5052934;28;20025;-82
2023/06/08 04:29:17;;;;;;;19.23;14.90;;;486.60;2380.80;;;;;;5053112;28;20112;-83
2023/06/08 04:31:42;;;;;;;17.08;13.75;;;486.90;2380.80;;;;;;5053118;28;20029;-83
2023/06/08 04:34:09;;;;;;;16.27;13.68;;;486.70;2380.80;;;;;;5052808;28;20082;-83
2023/06/08 04:36:35;;;;;;;19.38;14.40;;;486.70;2380.80;;;;;;5052893;28;20060;-83
2023/06/08 04:39:01;;;;;;;18.83;14.05;;;486.60;2380.80;;;;;;5054080;28;20055;-83
2023/06/08 04:41:29;;;;;;;24.75;16.33;;;486.60;2380.80;;;;;;5053945;28;20473;-83
2023/06/08 04:44:01;;;;;;;19.25;15.18;;;486.50;2380.80;;;;;;5052896;28;20116;-83
2023/06/08 04:46:30;;;;;;;21.20;14.07;;;486.50;2380.80;;;;;;5052788;28;20029;-83
2023/06/08 04:48:57;;;;;;;21.17;15.73;;;486.60;2380.80;;;;;;5053973;28;20025;-83
2023/06/08 04:51:29;;;;;;;21.48;16.52;;;486.60;2380.80;;;;;;5052973;28;20025;-83
2023/06/08 04:54:01;;;;;;;24.95;18.08;;;486.60;2380.80;;;;;;5052438;28;20035;-83
2023/06/08 04:56:29;;;;;;;33.85;19.58;;;486.60;2380.80;;;;;;5052647;28;20387;-83
2023/06/08 04:58:58;;;;;;;23.23;17.90;;;486.60;2380.80;;;;;;5062693;28;20029;-82
2023/06/08 05:01:24;;;;;;;29.48;18.85;;;486.70;2380.80;;;;;;5078262;28;20013;-82
2023/06/08 05:03:50;;;;;;;30.80;20.40;;;486.80;2380.80;;;;;;5055837;28;20118;-83
2023/06/08 05:06:16;;;;;;;32.35;21.42;;;486.80;2380.80;;;;;;5052266;28;20136;-83
2023/06/08 05:08:42;;;;;;;25.95;19.00;;;486.70;2380.80;;;;;;5053943;28;20056;-83
2023/06/08 05:11:08;;;;;;;25.20;18.63;;;486.70;2380.80;;;;;;5052668;28;20525;-83
2023/06/08 05:13:34;;;;;;;27.65;20.10;;;461.70;2380.80;;;;;;5052615;28;20112;-83
2023/06/08 05:16:00;;;;;;;24.08;18.40;;;486.70;2380.80;;;;;;5052111;28;20131;-83
2023/06/08 05:18:26;;;;;;;29.40;20.50;;;486.70;2380.80;;;;;;5052113;28;20029;-84
2023/06/08 05:20:52;;;;;;;31.98;19.00;;;486.80;2380.80;;;;;;5052420;28;20029;-84
2023/06/08 05:23:18;;;;;;;28.15;19.15;;;486.80;2380.80;;;;;;5052260;28;20043;-84
2023/06/08 05:25:43;;;;;;;22.98;18.10;;;486.90;2380.80;;;;;;5052441;28;20040;-83
2023/06/08 05:28:09;;;;;;;29.25;18.45;;;486.90;2380.80;;;;;;5053712;28;20047;-83
2023/06/08 05:30:35;;;;;;;26.83;19.08;;;486.90;2380.80;;;;;;5052159;28;20031;-84
2023/06/08 05:33:01;;;;;;;25.60;18.38;;;486.90;2380.80;;;;;;5052074;28;20125;-84
2023/06/08 05:35:27;;;;;;;25.55;19.52;;;487.00;2380.80;;;;;;5051957;28;20078;-83
2023/06/08 05:37:53;;;;;;;22.05;17.40;;;486.90;2380.80;;;;;;5052192;28;20036;-83
2023/06/08 05:40:19;;;;;;;23.85;17.67;;;487.10;2380.80;;;;;;5052260;28;20029;-83
2023/06/08 05:42:45;;;;;;;22.38;16.40;;;487.10;2380.80;;;;;;5052144;28;20076;-83
2023/06/08 05:45:11;;;;;;;22.65;16.65;;;487.30;2380.80;;;;;;5052056;28;20029;-83
2023/06/08 05:47:37;;;;;;;17.27;15.40;;;487.30;2380.80;;;;;;5052149;28;20029;-83
2023/06/08 05:50:03;;;;;;;17.60;13.23;;;487.30;2380.80;;;;;;5052000;28;20427;-83
2023/06/08 05:52:32;;;;;;;14.77;12.57;;;487.30;2380.80;;;;;;5052005;28;20079;-83
2023/06/08 05:55:00;;;;;;;16.55;12.25;;;487.30;2380.80;;;;;;5053267;28;20096;-84
2023/06/08 05:57:26;;;;;;;17.65;12.98;;;512.50;2380.80;;;;;;5051869;28;20091;-84
2023/06/08 05:59:51;;;;;;;13.23;10.93;;;512.00;2380.80;;;;;;5052147;28;20033;-83
2023/06/08 06:02:17;;;;;;;13.57;11.05;;;487.30;2150.40;;;;;;5052993;28;20519;-83
2023/06/08 06:04:43;;;;;;;14.80;9.80;;;487.30;2380.80;;;;;;5051657;28;20029;-83
2023/06/08 06:07:09;;;;;;;10.85;9.75;;;512.10;2380.80;;;;;;5053244;28;20044;-82
2023/06/08 06:09:35;;;;;;;15.43;9.45;;;512.20;2380.80;;;;;;5053138;28;20033;-82
2023/06/08 06:12:02;;;;;;;12.50;9.63;;;512.30;2380.80;;;;;;5054626;28;20022;-82
2023/06/08 06:14:35;;;;;;;11.77;9.23;;;512.40;2380.80;;;;;;5055793;28;20465;-83
2023/06/08 06:17:01;;;;;;;10.73;8.50;;;512.30;2380.80;;;;;;5055541;28;20036;-84
2023/06/08 06:19:29;;;;;;;11.35;8.38;;;512.30;2380.80;;;;;;5055133;28;20029;-83
2023/06/08 06:21:54;;;;;;;11.60;9.25;;;512.40;2380.80;;;;;;5055529;28;20036;-83
2023/06/08 06:24:20;;;;;;;11.35;8.73;;;512.40;2380.80;;;;;;5055366;28;20021;-83
2023/06/08 06:26:46;;;;;;;9.52;8.20;;;512.20;2380.80;;;;;;5055152;28;20031;-83
2023/06/08 06:29:11;;;;;;;11.57;8.25;;;512.20;2380.80;;;;;;5056349;28;20032;-83
2023/06/08 06:31:37;;;;;;;9.20;8.27;;;512.20;2380.80;;;;;;5055301;28;20036;-84
2023/06/08 06:34:03;;;;;;;13.90;8.35;;;512.30;2380.80;;;;;;5054982;28;20032;-83
2023/06/08 06:36:29;;;;;;;14.00;9.05;;;512.40;2380.80;;;;;;5055187;28;20040;-83
2023/06/08 06:38:55;;;;;;;14.18;9.82;;;512.50;2380.80;;;;;;5054932;28;20473;-83
2023/06/08 06:41:21;;;;;;;9.95;8.38;;;512.60;2380.80;;;;;;5056633;28;20067;-83
2023/06/08 06:43:46;;;;;;;11.88;8.63;;;512.70;2380.80;;;;;;5055291;28;20445;-83
2023/06/08 06:46:19;;;;;;;13.02;9.07;;;512.80;2380.80;;;;;;5054784;28;20512;-83
2023/06/08 06:48:45;;;;;;;13.32;8.95;;;512.80;2380.80;;;;;;5054928;28;20029;-84
2023/06/08 06:51:11;;;;;;;13.00;9.55;;;512.90;2124.80;;;;;;5056252;28;20036;-81
2023/06/08 06:53:37;;;;;;;15.57;10.05;;;512.90;2380.80;;;;;;5054621;28;20087;-82
2023/06/08 06:56:03;;;;;;;17.42;9.95;;;512.60;2380.80;;;;;;5056197;28;20025;-81
2023/06/08 06:58:30;;;;;;;11.05;9.85;;;512.60;2380.80;;;;;;5054594;28;20100;-83
2023/06/08 07:00:57;;;;;;;12.82;10.38;;;512.40;2380.80;;;;;;5054486;28;20037;-83
2023/06/08 07:03:26;;;;;;;12.02;9.95;;;512.40;2380.80;;;;;;5054722;28;20028;-83
2023/06/08 07:05:53;;;;;;;13.60;10.27;;;512.50;2380.80;;;;;;5054348;28;20445;-83
2023/06/08 07:08:19;;;;;;;15.27;12.15;;;512.60;2380.80;;;;;;5054597;28;20453;-83
2023/06/08 07:10:45;;;;;;;14.02;11.02;;;512.50;2380.80;;;;;;5054530;28;20033;-83
2023/06/08 07:13:10;;;;;;;15.85;11.73;;;512.50;2380.80;;;;;;5054714;28;20025;-83
2023/06/08 07:15:38;;;;;;;17.48;11.27;;;512.60;2380.80;;;;;;5054112;28;20021;-83
2023/06/08 07:18:04;;;;;;;13.52;10.63;;;512.60;2380.80;;;;;;5054328;28;20358;-83
2023/06/08 07:20:30;;;;;;;15.23;11.43;;;512.60;2380.80;;;;;;5054582;28;20032;-83
2023/06/08 07:22:55;;;;;;;16.55;12.60;;;512.70;2380.80;;;;;;5053922;28;20072;-83
2023/06/08 07:25:21;;;;;;;16.67;12.23;;;512.60;2380.80;;;;;;5055654;28;20024;-83
2023/06/08 07:27:47;;;;;;;18.90;11.88;;;512.60;2380.80;;;;;;5055309;28;20026;-83
2023/06/08 07:30:13;;;;;;;17.08;11.90;;;512.60;2124.80;;;;;;5054202;28;20086;-83
2023/06/08 07:32:39;;;;;;;20.52;12.57;;;512.70;2380.80;;;;;;5055844;28;20025;-84
2023/06/08 07:35:05;;;;;;;15.20;12.00;;;512.80;2201.60;;;;;;5053910;28;20083;-82
2023/06/08 07:37:31;;;;;;;18.52;16.58;;;512.70;2380.80;;;;;;5053876;28;20033;-82
2023/06/08 07:39:57;;;;;;;20.95;18.90;;;512.70;2380.80;;;;;;5054929;28;20036;-82
2023/06/08 07:42:22;;;;;;;22.02;15.73;;;512.80;2380.80;;;;;;5053686;28;20420;-82
2023/06/08 07:44:49;;;;;;;17.45;13.68;;;512.90;2380.80;;;;;;5053884;28;20021;-80
2023/06/08 07:47:17;;;;;;;13.85;11.23;;;537.60;2406.40;;;;;;5053797;28;20094;-83
2023/06/08 07:49:42;;;;;;;14.15;10.65;;;537.70;2406.40;;;;;;5054756;28;20146;-83
2023/06/08 07:52:08;;;;;;;13.95;10.63;;;537.70;2406.40;;;;;;5053481;28;20108;-82
2023/06/08 07:54:35;;;;;;;13.85;10.40;;;537.60;2406.40;;;;;;5053538;28;20074;-83
2023/06/08 07:57:00;;;;;;;13.25;10.32;;;537.60;2406.40;;;;;;5053396;28;20021;-82
2023/06/08 07:59:26;;;;;;;15.32;10.93;;;537.60;2406.40;;;;;;5053445;28;20029;-83
2023/06/08 08:01:53;;;;;;;11.25;9.98;;;512.90;2380.80;;;;;;5053270;28;20039;-82
2023/06/08 08:04:19;;;;;;;14.23;10.80;;;537.70;2406.40;;;;;;5053081;28;20021;-82
2023/06/08 08:06:45;;;;;;;14.43;11.27;;;537.80;2406.40;;;;;;5052930;28;20067;-82
2023/06/08 08:09:11;;;;;;;12.05;10.02;;;538.00;2406.40;;;;;;5053365;28;20028;-82
2023/06/08 08:11:37;;;;;;;14.77;10.18;;;;;;;;;;5054380;28;20025;-82
2023/06/08 08:14:09;;;;;;;14.23;10.77;;;;;;;;;;5053095;28;20021;-83
2023/06/08 08:16:35;;;;;;;13.70;9.70;;;;;;;;;;5054138;28;20028;-82
2023/06/08 08:19:02;;;;;;;13.07;10.45;;;;;;;;;;5052828;28;20040;-82
2023/06/08 08:21:28;;;;;;;16.73;9.80;;;;;;;;;;5052795;28;20021;-82
2023/06/08 08:23:54;;;;;;;12.90;9.88;;;;;;;;;;5052740;28;20186;-82
2023/06/08 08:26:21;;;;;;;11.25;10.05;;;;;;;;;;5054412;28;20021;-82
2023/06/08 08:28:47;;;;;;;16.70;9.85;;;563.20;2432.00;;;;;;5052690;28;20112;-83
2023/06/08 08:31:13;;;;;;;16.58;10.13;;;538.50;2406.40;;;;;;5052628;28;20116;-83
2023/06/08 08:33:38;;;;;;;12.07;10.60;;;538.50;2406.40;;;;;;5052690;28;20029;-82
2023/06/08 08:36:05;;;;;;;12.57;10.50;;;563.20;2432.00;;;;;;5052582;28;20036;-82
2023/06/08 08:38:31;;;;;;;12.45;10.52;;;563.30;2432.00;;;;;;5053519;28;20393;-82
2023/06/08 08:41:02;;;;;;;14.43;10.18;;;563.40;2432.00;;;;;;5052867;28;20020;-82
2023/06/08 08:43:48;;;;;;;13.82;10.25;;;563.40;2432.00;;;;;;5054471;28;20021;-83
2023/06/08 08:46:14;;;;;;;13.75;11.15;;;563.40;2432.00;;;;;;5050289;28;20120;-82
2023/06/08 08:48:43;;;;;;;18.02;10.55;;;563.40;2432.00;;;;;;5052418;28;20124;-81
2023/06/08 08:51:19;;;;;;;11.27;9.98;;;563.40;2432.00;;;;;;5052695;28;20025;-82
2023/06/08 08:53:50;;;;;;;13.65;11.45;;;563.40;2432.00;;;;;;5076198;28;20012;-81
2023/06/08 08:56:28;;;;;;;12.38;9.75;;;563.50;2432.00;;;;;;5058116;28;20119;-80
2023/06/08 08:58:54;;;;;;;14.20;11.30;;;563.60;2432.00;;;;;;5051462;28;20530;-79
2023/06/08 09:01:25;;;;;;;13.77;10.38;;;563.50;2432.00;;;;;;5051926;28;20021;-81
2023/06/08 09:03:52;;;;;;;15.00;10.63;;;563.50;2432.00;;;;;;5052434;28;20116;-81
2023/06/08 09:06:18;;;;;;;16.83;10.35;;;563.50;2432.00;;;;;;5051421;28;20061;-80
2023/06/08 09:08:43;;;;;;;16.13;11.85;;;563.50;2432.00;;;;;;5052152;28;20032;-80
2023/06/08 09:11:10;;;;;;;12.55;10.20;;;563.50;2432.00;;;;;;5052133;28;20036;-78
2023/06/08 09:13:38;;;;;;;14.60;12.95;;;563.20;2432.00;;;;;;5053138;28;20085;-80
2023/06/08 09:16:21;;;;;;;21.17;17.20;;;563.20;2432.00;;;;;;5052262;28;20090;-79
2023/06/08 09:19:02;;;;;;;19.00;13.50;;;563.30;2432.00;;;;;;5052015;28;20120;-81
2023/06/08 09:21:29;;;;;;;17.90;16.10;;;563.40;2432.00;;;;;;5051728;28;20028;-79
2023/06/08 09:24:05;;;;;;;17.50;15.60;;;563.40;2432.00;;;;;;5051841;28;20033;-79
2023/06/08 09:26:32;;;;;;;15.60;11.40;;;563.50;2432.00;;;;;;5051813;28;20029;-80
2023/06/08 09:29:00;;;;;;;16.05;11.27;;;563.70;2432.00;;;;;;5051734;28;20029;-80
2023/06/08 09:31:29;;;;;;;14.20;10.60;;;563.90;2432.00;;;;;;5052015;28;20461;-81
2023/06/08 09:34:11;;;;;;;16.00;10.88;;;564.00;2432.00;;;;;;5052073;28;20096;-82
2023/06/08 09:36:38;;;;;;;;;;;588.90;2432.00;;;;;;5052403;28;20065;-82
2023/06/08 09:39:07;;;;;;;11.18;9.45;;;588.90;2432.00;;;;;;5053216;28;20058;-81
2023/06/08 09:41:37;;;;;;;15.68;11.35;;;564.10;2432.00;;;;;;5051854;28;20025;-82
2023/06/08 09:44:17;;;;;;;15.73;10.93;;;588.80;2432.00;;;;;;5052148;28;20036;-80
2023/06/08 09:46:46;;;;;;;16.08;10.30;;;589.00;2432.00;;;;;;5054848;28;20167;-81
2023/06/08 09:49:14;;;;;;;13.63;10.60;;;589.00;2432.00;;;;;;5055599;28;20491;-81
2023/06/08 09:51:48;;;;;;;13.68;11.25;;;589.10;2432.00;;;;;;5055745;28;20056;-81
2023/06/08 09:54:19;;;;;;;13.18;10.95;;;589.20;2432.00;;;;;;5055487;28;20414;-80
2023/06/08 09:56:47;;;;;;;14.13;11.35;;;589.30;2432.00;;;;;;5056511;28;20064;-82
2023/06/08 09:59:18;;;;;;;12.55;10.52;;;589.40;2432.00;;;;;;5055634;28;20029;-82
2023/06/08 10:01:51;;;;;;;13.82;10.32;;;589.60;2432.00;;;;;;5056795;28;20473;-82
2023/06/08 10:04:21;;;;;;;12.65;10.75;;;589.70;2432.00;;;;;;5055654;28;20071;-81
2023/06/08 10:06:51;;;;;;;12.88;10.57;;;614.60;2432.00;;;;;;5055038;28;20048;-81
2023/06/08 10:09:22;;;;;;;13.70;9.93;;;614.80;2432.00;;;;;;5056366;28;20100;-80
2023/06/08 10:11:49;;;;;;;14.17;10.93;;;614.50;2432.00;;;;;;5055475;28;20093;-80
2023/06/08 10:14:16;;;;;;;11.13;9.43;;;614.40;2432.00;;;;;;5056374;28;20025;-80
2023/06/08 10:16:42;;;;;;;18.10;10.23;;;614.40;2432.00;;;;;;5056424;28;20576;-81
2023/06/08 10:19:08;;;;;;;11.77;10.07;;;614.60;2432.00;;;;;;5055286;28;20131;-81
2023/06/08 10:21:36;;;;;;;11.38;10.05;;;614.90;2432.00;;;;;;5055359;28;20025;-81
2023/06/08 10:24:03;;;;;;;13.07;9.32;;;615.00;2432.00;;;;;;5054993;28;20025;-82
2023/06/08 10:26:29;;;;;;;13.02;9.98;;;615.20;2432.00;;;;;;5055055;28;20112;-83
2023/06/08 10:29:11;;;;;;;12.95;10.05;;;615.20;2432.00;;;;;;5055161;28;20039;-82
2023/06/08 10:31:47;;;;;;;12.40;10.57;;;615.30;2432.00;;;;;;5054559;28;20033;-82
2023/06/08 10:34:17;;;;;;;16.33;9.43;;;615.00;2432.00;;;;;;5054908;28;20040;-82
2023/06/08 10:36:44;;;;;;;13.10;10.65;;;615.00;2432.00;;;;;;5056178;28;20036;-82
2023/06/08 10:39:14;;;;;;;12.95;10.15;;;615.10;2432.00;;;;;;5056040;28;20029;-82
2023/06/08 10:41:54;;;;;;;13.05;11.23;;;615.20;2432.00;;;;;;5054954;28;20025;-83
2023/06/08 10:44:40;;;;;;;10.88;9.75;;;640.10;2432.00;;;;;;5054676;28;20442;-83
2023/06/08 10:47:12;;;;;;;11.07;9.38;;;615.30;2432.00;;;;;;5054798;28;20033;-82
2023/06/08 10:49:51;;;;;;;14.88;11.25;;;640.10;2432.00;;;;;;5055045;28;20025;-82
2023/06/08 10:52:19;;;;;;;14.85;9.70;;;640.30;2432.00;;;;;;5054496;28;20033;-82
2023/06/08 10:54:57;;;;;;;10.00;9.00;;;640.20;2432.00;;;;;;5054578;28;20071;-81
2023/06/08 10:58:05;;;;;;;11.77;8.80;;;640.10;2432.00;;;;;;5053219;28;20033;-82
2023/06/08 11:00:32;;;;;;;10.40;8.65;;;640.10;2432.00;;;;;;5034883;28;20033;-76
2023/06/08 11:03:05;;;;;;;11.85;9.43;;;640.30;2432.00;;;;;;5058014;28;20104;-81
2023/06/08 11:05:32;;;;;;;20.15;13.57;;;640.50;2432.00;;;;;;5053119;28;20048;-79
2023/06/08 11:08:00;;;;;;;13.27;10.18;;;640.60;2432.00;;;;;;5037861;28;20037;-79
2023/06/08 11:10:26;;;;;;;11.02;9.65;;;640.50;2432.00;;;;;;5050547;28;20056;-78
2023/06/08 11:12:52;;;;;;;13.73;9.95;;;640.40;2432.00;;;;;;5040310;28;20025;-79
2023/06/08 11:15:18;;;;;;;12.68;10.13;;;640.20;2432.00;;;;;;5043574;28;20035;-78
2023/06/08 11:17:56;;;;;;;10.70;9.40;;;640.20;2432.00;;;;;;5049028;28;20100;-77
2023/06/08 11:20:26;;;;;;;16.02;14.32;;;640.30;2432.00;;;;;;5050973;28;20049;-80
2023/06/08 11:22:52;;;;;;;15.77;14.05;;;640.60;2432.00;;;;;;5040409;28;20415;-79
2023/06/08 11:25:22;;;;;;;14.23;11.32;;;640.50;2432.00;;;;;;5043436;28;20032;-77
2023/06/08 11:27:53;;;;;;;15.15;11.43;;;640.70;2432.00;;;;;;5047937;28;20017;-79
2023/06/08 11:30:20;;;;;;;14.88;11.65;;;640.70;2432.00;;;;;;5037219;28;20025;-81
2023/06/08 11:32:51;;;;;;;16.60;12.27;;;640.90;2432.00;;;;;;5047687;28;20025;-79
2023/06/08 11:35:21;;;;;;;12.38;10.85;;;665.80;2432.00;;;;;;5043599;28;20075;-79
2023/06/08 11:37:55;;;;;;;11.68;9.40;;;665.90;2432.00;;;;;;5039289;28;20032;-78
2023/06/08 11:40:21;;;;;;;16.88;12.25;;;;;;;;;;5049690;28;20037;-79
2023/06/08 11:42:47;;;;;;;12.15;8.82;;;666.50;2432.00;;;;;;5039131;28;20013;-79
2023/06/08 11:45:14;;;;;;;13.07;10.63;;;666.40;2432.00;;;;;;5043734;28;20024;-81
2023/06/08 11:47:44;;;;;;;10.70;8.45;;;691.30;2432.00;;;;;;5046358;28;20033;-80
2023/06/08 11:50:14;;;;;;;9.35;8.35;;;691.60;2432.00;;;;;;5036676;28;20025;-82
2023/06/08 11:52:42;;;;;;;11.20;8.70;;;691.70;2432.00;;;;;;5048316;28;20384;-81
2023/06/08 11:55:16;;;;;;;13.18;9.52;;;716.80;2432.00;;;;;;5041679;28;20025;-83
2023/06/08 11:57:47;;;;;;;10.73;8.18;;;716.80;2432.00;;;;;;5040795;28;20033;-79
2023/06/08 12:00:23;;;;;;;12.50;7.90;;;692.00;2432.00;;;;;;5050772;28;20048;-78
2023/06/08 12:02:52;;;;;;;10.98;8.00;;;691.90;2432.00;;;;;;5039669;28;20025;-79
2023/06/08 12:05:40;;;;;;;9.32;6.68;;;691.80;2432.00;;;;;;5043901;28;20461;-78
2023/06/08 12:08:11;;;;;;;8.07;7.18;;;716.90;2432.00;;;;;;5049056;28;20233;-78
2023/06/08 12:10:46;;;;;;;9.50;6.88;;;717.10;2432.00;;;;;;5036779;28;20049;-78
2023/06/08 12:13:19;;;;;;;8.68;6.85;;;716.90;2432.00;;;;;;5044859;28;20108;-78